| time (UTC) | temp F | wind direction | speed knots | gust knots | rain 1hr in | rain 24hr in | rain mn in | humidity % | barometer mb |
| 20260906131932 | 83 | 26 | 0.0 | 0.0 | 0.00 | 0.00 | 0.00 | 81 | 1014.0 |
| 20260906131428 | 82 | 25 | 0.0 | 0.0 | 0.00 | 0.00 | 0.00 | 83 | 1014.2 |
| 20260906130924 | 82 | 27 | 0.0 | 0.9 | 0.00 | 0.00 | 0.00 | 84 | 1014.3 |
| 20260906130423 | 83 | 32 | 0.0 | 0.0 | 0.00 | 0.00 | 0.00 | 81 | 1014.2 |
| 20260906125923 | 82 | 31 | 0.0 | 0.0 | 0.00 | 0.00 | 0.00 | 85 | 1014.0 |
| 20260906125420 | 82 | 31 | 0.0 | 0.0 | 0.00 | 0.00 | 0.00 | 84 | 1014.0 |
| 20260906124919 | 81 | 32 | 0.0 | 0.0 | 0.00 | 0.00 | 0.00 | 86 | 1013.9 |
| 20260906124416 | 79 | 32 | 0.0 | 0.0 | 0.00 | 0.00 | 0.00 | 89 | 1013.9 |
| 20260906123910 | 78 | 34 | 0.0 | 0.0 | 0.00 | 0.00 | 0.00 | 91 | 1013.9 |
| 20260906123409 | 77 | 34 | 0.0 | 0.9 | 0.00 | 0.00 | 0.00 | 93 | 1013.8 |
| 20260906122904 | 76 | 36 | 0.0 | 0.9 | 0.00 | 0.00 | 0.00 | 95 | 1013.9 |
| 20260906122359 | 76 | 36 | 0.0 | 0.9 | 0.00 | 0.00 | 0.00 | 95 | 1014.1 |
| 20260906121856 | 76 | 79 | 0.0 | 0.0 | 0.00 | 0.00 | 0.00 | 97 | 1013.7 |
| 20260906121351 | 75 | 79 | 0.0 | 0.0 | 0.00 | 0.00 | 0.00 | 97 | 1013.9 |
| 20260906120847 | 75 | 79 | 0.0 | 0.0 | 0.00 | 0.00 | 0.00 | 97 | 1013.8 |
| 20260906120343 | 75 | 79 | 0.0 | 0.9 | 0.00 | 0.00 | 0.00 | 97 | 1013.7 |
| 20260906115839 | 75 | 35 | 0.0 | 0.0 | 0.00 | 0.00 | 0.00 | 97 | 1013.7 |
| 20260906115334 | 75 | 36 | 0.0 | 0.0 | 0.00 | 0.00 | 0.00 | 98 | 1013.7 |
| 20260906114833 | 75 | 36 | 0.0 | 0.0 | 0.00 | 0.00 | 0.00 | 98 | 1013.6 |
| 20260906114329 | 75 | 36 | 0.0 | 0.0 | 0.00 | 0.00 | 0.00 | 98 | 1013.7 |
| 20260906113824 | 75 | 37 | 0.0 | 0.9 | 0.00 | 0.00 | 0.00 | 98 | 1013.6 |
| 20260906113323 | 75 | 12 | 0.0 | 0.9 | 0.00 | 0.00 | 0.00 | 99 | 1013.7 |
| 20260906112818 | 75 | 35 | 0.0 | 0.0 | 0.00 | 0.00 | 0.00 | 99 | 1013.6 |
| 20260906112315 | 75 | 44 | 0.0 | 1.7 | 0.00 | 0.00 | 0.00 | 99 | 1013.6 |
| 20260906111814 | 75 | 65 | 0.0 | 0.0 | 0.00 | 0.00 | 0.00 | 99 | 1013.5 |
| 20260906111314 | 75 | 83 | 0.0 | 0.0 | 0.00 | 0.00 | 0.00 | 99 | 1013.4 |
| 20260906110809 | 75 | 84 | 0.0 | 0.0 | 0.00 | 0.00 | 0.00 | 98 | 1013.4 |
| 20260906110305 | 75 | 38 | 0.0 | 0.0 | 0.00 | 0.00 | 0.00 | 98 | 1013.6 |
| 20260906105804 | 75 | 39 | 0.0 | 0.9 | 0.00 | 0.00 | 0.00 | 98 | 1013.7 |
| 20260906105259 | 75 | 46 | 0.0 | 0.0 | 0.00 | 0.00 | 0.00 | 98 | 1013.4 |
| 20260906104755 | 75 | 34 | 0.0 | 0.9 | 0.00 | 0.00 | 0.00 | 98 | 1013.7 |
| 20260906104253 | 75 | 34 | 0.0 | 0.9 | 0.00 | 0.00 | 0.00 | 98 | 1013.8 |
| 20260906103751 | 75 | 30 | 0.0 | 0.9 | 0.00 | 0.00 | 0.00 | 98 | 1013.7 |
| 20260906103246 | 75 | 164 | 0.9 | 1.7 | 0.00 | 0.00 | 0.00 | 98 | 1013.5 |
| 20260906102742 | 75 | 42 | 0.0 | 0.9 | 0.00 | 0.00 | 0.00 | 98 | 1013.5 |
| 20260906102240 | 75 | 353 | 1.7 | 2.6 | 0.00 | 0.00 | 0.00 | 98 | 1013.5 |
| 20260906101736 | 75 | 30 | 0.0 | 2.6 | 0.00 | 0.00 | 0.00 | 98 | 1013.4 |
| 20260906101230 | 75 | 41 | 0.0 | 1.7 | 0.00 | 0.00 | 0.00 | 98 | 1013.4 |
| 20260906100726 | 74 | 31 | 0.0 | 1.7 | 0.00 | 0.00 | 0.00 | 99 | 1013.4 |
| 20260906100226 | 74 | 40 | 0.9 | 1.7 | 0.00 | 0.00 | 0.00 | 99 | 1013.3 |
| 20260906095721 | 73 | 45 | 0.0 | 0.9 | 0.00 | 0.00 | 0.00 | 98 | 1013.3 |
| 20260906095216 | 73 | 20 | 0.0 | 0.9 | 0.00 | 0.00 | 0.00 | 98 | 1013.4 |
| 20260906094714 | 73 | 55 | 0.0 | 0.9 | 0.00 | 0.00 | 0.00 | 98 | 1013.1 |
| 20260906094210 | 73 | 53 | 0.0 | 0.0 | 0.00 | 0.00 | 0.00 | 98 | 1013.2 |
| 20260906093707 | 74 | 56 | 0.0 | 0.0 | 0.00 | 0.00 | 0.00 | 98 | 1012.9 |
| 20260906093202 | 74 | 56 | 0.0 | 0.0 | 0.00 | 0.00 | 0.00 | 98 | 1012.9 |
| 20260906092657 | 73 | 101 | 0.0 | 0.9 | 0.00 | 0.00 | 0.00 | 98 | 1013.1 |
| 20260906092156 | 74 | 189 | 1.7 | 1.7 | 0.00 | 0.00 | 0.00 | 97 | 1012.9 |
| 20260906091653 | 73 | 78 | 0.0 | 0.9 | 0.00 | 0.00 | 0.00 | 97 | 1013.0 |
| 20260906091149 | 73 | 84 | 0.0 | 0.9 | 0.00 | 0.00 | 0.00 | 97 | 1013.1 |
| 20260906090645 | 73 | 96 | 0.0 | 0.9 | 0.00 | 0.00 | 0.00 | 97 | 1013.1 |
| 20260906090144 | 73 | 104 | 0.9 | 0.9 | 0.00 | 0.00 | 0.00 | 97 | 1012.8 |
| 20260906085643 | 73 | 88 | 0.0 | 1.7 | 0.00 | 0.00 | 0.00 | 97 | 1013.0 |
| 20260906085137 | 73 | 107 | 0.9 | 1.7 | 0.00 | 0.00 | 0.00 | 97 | 1013.0 |
| 20260906084632 | 73 | 100 | 0.0 | 0.9 | 0.00 | 0.00 | 0.00 | 96 | 1012.8 |
| 20260906084131 | 73 | 88 | 0.0 | 0.0 | 0.00 | 0.00 | 0.00 | 96 | 1012.8 |
| 20260906083626 | 73 | 81 | 0.0 | 0.9 | 0.00 | 0.00 | 0.00 | 96 | 1012.8 |
| 20260906083121 | 73 | 117 | 0.9 | 0.9 | 0.00 | 0.00 | 0.00 | 95 | 1012.6 |
| 20260906082616 | 74 | 126 | 0.9 | 0.9 | 0.00 | 0.00 | 0.00 | 95 | 1012.5 |
| 20260906082112 | 74 | 102 | 0.9 | 0.9 | 0.00 | 0.00 | 0.00 | 94 | 1012.7 |
| 20260906081608 | 74 | 130 | 0.9 | 0.9 | 0.00 | 0.00 | 0.00 | 94 | 1012.5 |
| 20260906081103 | 74 | 18 | 0.0 | 1.7 | 0.00 | 0.00 | 0.00 | 94 | 1012.8 |
| 20260906080559 | 74 | 336 | 0.9 | 1.7 | 0.00 | 0.00 | 0.00 | 95 | 1012.8 |
| 20260906080055 | 73 | 205 | 0.9 | 1.7 | 0.00 | 0.00 | 0.00 | 95 | 1012.8 |
| 20260906075549 | 73 | 69 | 0.0 | 1.7 | 0.00 | 0.00 | 0.00 | 95 | 1012.8 |
| 20260906075044 | 73 | 139 | 0.9 | 0.9 | 0.00 | 0.00 | 0.00 | 97 | 1012.8 |
| 20260906074539 | 72 | 242 | 0.9 | 1.7 | 0.00 | 0.00 | 0.00 | 98 | 1012.9 |
| 20260906074037 | 71 | 91 | 0.0 | 0.0 | 0.00 | 0.00 | 0.00 | 97 | 1013.0 |
| 20260906073532 | 71 | 91 | 0.0 | 0.0 | 0.00 | 0.00 | 0.00 | 97 | 1012.7 |
| 20260906073029 | 71 | 91 | 0.0 | 0.0 | 0.00 | 0.00 | 0.00 | 97 | 1012.8 |
| 20260906072523 | 71 | 78 | 0.0 | 0.0 | 0.00 | 0.00 | 0.00 | 97 | 1012.6 |
| 20260906072020 | 71 | 93 | 0.0 | 0.0 | 0.00 | 0.00 | 0.00 | 97 | 1012.7 |
| 20260906071515 | 71 | 114 | 0.9 | 0.9 | 0.00 | 0.00 | 0.00 | 97 | 1012.8 |
| 20260906071011 | 71 | 138 | 0.9 | 1.7 | 0.00 | 0.00 | 0.00 | 97 | 1012.9 |
| 20260906070507 | 71 | 97 | 0.0 | 0.0 | 0.00 | 0.00 | 0.00 | 97 | 1012.9 |
| 20260906070002 | 71 | 140 | 0.9 | 1.7 | 0.00 | 0.00 | 0.00 | 96 | 1012.9 |
| 20260906065502 | 71 | 146 | 1.7 | 1.7 | 0.00 | 0.00 | 0.00 | 96 | 1012.7 |
| 20260906064957 | 71 | 87 | 0.0 | 0.9 | 0.00 | 0.00 | 0.00 | 96 | 1013.1 |
| 20260906064453 | 71 | 87 | 0.0 | 0.0 | 0.00 | 0.00 | 0.00 | 95 | 1012.6 |
| 20260906063948 | 71 | 87 | 0.0 | 0.0 | 0.00 | 0.00 | 0.00 | 95 | 1012.9 |
| 20260906063444 | 72 | 99 | 0.0 | 0.9 | 0.00 | 0.00 | 0.00 | 94 | 1012.9 |
| 20260906062943 | 72 | 96 | 0.9 | 0.9 | 0.00 | 0.00 | 0.00 | 93 | 1013.1 |
| 20260906062439 | 72 | 41 | 0.0 | 0.0 | 0.00 | 0.00 | 0.00 | 94 | 1012.8 |
| 20260906061934 | 72 | 68 | 0.0 | 0.0 | 0.00 | 0.00 | 0.00 | 93 | 1012.9 |
| 20260906061429 | 72 | 69 | 0.0 | 0.0 | 0.00 | 0.00 | 0.00 | 93 | 1013.1 |
| 20260906060924 | 72 | 69 | 0.0 | 0.0 | 0.00 | 0.00 | 0.00 | 94 | 1013.5 |
| 20260906060421 | 72 | 69 | 0.0 | 0.0 | 0.00 | 0.00 | 0.00 | 94 | 1013.5 |
| 20260906055917 | 72 | 69 | 0.0 | 0.0 | 0.00 | 0.00 | 0.00 | 94 | 1013.5 |
| 20260906055413 | 72 | 69 | 0.0 | 0.0 | 0.00 | 0.00 | 0.00 | 93 | 1013.4 |
| 20260906054908 | 72 | 69 | 0.0 | 0.0 | 0.00 | 0.00 | 0.00 | 93 | 1013.5 |
| 20260906054403 | 72 | 69 | 0.0 | 0.0 | 0.00 | 0.00 | 0.00 | 93 | 1013.6 |
| 20260906053859 | 72 | 69 | 0.0 | 0.9 | 0.00 | 0.00 | 0.00 | 93 | 1013.6 |
| 20260906053354 | 72 | 39 | 0.0 | 0.0 | 0.00 | 0.00 | 0.00 | 93 | 1013.7 |
| 20260906052850 | 72 | 51 | 0.0 | 0.0 | 0.00 | 0.00 | 0.00 | 92 | 1013.8 |
| 20260906052346 | 73 | 56 | 0.0 | 0.0 | 0.00 | 0.00 | 0.00 | 92 | 1013.7 |
| 20260906051843 | 73 | 98 | 0.9 | 0.9 | 0.00 | 0.00 | 0.00 | 92 | 1013.9 |
| 20260906051342 | 73 | 114 | 0.9 | 0.9 | 0.00 | 0.00 | 0.00 | 91 | 1013.7 |
| 20260906050838 | 73 | 36 | 0.0 | 0.0 | 0.00 | 0.00 | 0.00 | 89 | 1013.8 |
| 20260906050333 | 73 | 277 | 2.6 | 2.6 | 0.00 | 0.00 | 0.00 | 89 | 1013.7 |
| 20260906045832 | 73 | 339 | 0.9 | 0.9 | 0.00 | 0.00 | 0.00 | 91 | 1013.4 |
| 20260906045326 | 73 | 11 | 0.9 | 0.9 | 0.00 | 0.00 | 0.00 | 92 | 1013.6 |
| 20260906044823 | 72 | 22 | 0.9 | 0.9 | 0.00 | 0.00 | 0.00 | 91 | 1013.7 |
| 20260906044317 | 73 | 33 | 0.0 | 0.0 | 0.00 | 0.00 | 0.00 | 91 | 1013.6 |
| 20260906043813 | 73 | 33 | 0.0 | 0.0 | 0.00 | 0.00 | 0.00 | 91 | 1013.8 |
| 20260906043308 | 72 | 33 | 0.0 | 0.0 | 0.00 | 0.00 | 0.00 | 91 | 1014.0 |
| 20260906042803 | 72 | 34 | 0.0 | 0.0 | 0.00 | 0.00 | 0.00 | 91 | 1014.2 |
| 20260906042306 | 73 | 37 | 0.0 | 0.9 | 0.00 | 0.00 | 0.00 | 92 | 1014.1 |
| 20260906041757 | 73 | 26 | 0.0 | 0.0 | 0.00 | 0.00 | 0.00 | 92 | 1014.1 |
| 20260906041253 | 72 | 30 | 0.0 | 0.9 | 0.00 | 0.00 | 0.00 | 92 | 1014.2 |
| 20260906040748 | 72 | 336 | 0.9 | 0.9 | 0.00 | 0.00 | 0.00 | 92 | 1014.2 |
| 20260906040243 | 72 | 51 | 0.0 | 0.0 | 0.00 | 0.00 | 0.00 | 92 | 1014.2 |
| 20260906035738 | 73 | 72 | 0.0 | 0.0 | 0.00 | 0.00 | 0.00 | 92 | 1014.0 |
| 20260906035234 | 73 | 64 | 0.0 | 0.0 | 0.00 | 0.00 | 0.00 | 92 | 1014.1 |
| 20260906034734 | 73 | 75 | 0.0 | 0.9 | 0.00 | 0.00 | 0.00 | 91 | 1014.4 |
| 20260906034229 | 73 | 69 | 0.0 | 1.7 | 0.00 | 0.00 | 0.00 | 91 | 1014.7 |
| 20260906033725 | 73 | 36 | 0.9 | 0.9 | 0.00 | 0.00 | 0.00 | 92 | 1014.5 |
| 20260906033224 | 73 | 54 | 0.0 | 0.0 | 0.00 | 0.00 | 0.00 | 91 | 1014.5 |
| 20260906032721 | 73 | 54 | 0.0 | 0.0 | 0.00 | 0.00 | 0.00 | 90 | 1014.3 |
| 20260906032221 | 73 | 54 | 0.0 | 0.9 | 0.00 | 0.00 | 0.00 | 90 | 1014.3 |
| 20260906031716 | 73 | 133 | 0.0 | 0.9 | 0.00 | 0.00 | 0.00 | 89 | 1014.0 |
| 20260906031212 | 74 | 85 | 0.9 | 2.6 | 0.00 | 0.00 | 0.00 | 88 | 1014.1 |
| 20260906030711 | 75 | 64 | 0.9 | 4.3 | 0.00 | 0.00 | 0.00 | 85 | 1014.4 |
| 20260906030206 | 76 | 89 | 0.0 | 1.7 | 0.00 | 0.00 | 0.00 | 81 | 1014.4 |
| 20260906025706 | 77 | 74 | 0.0 | 0.9 | 0.00 | 0.00 | 0.00 | 77 | 1014.1 |
| 20260906025200 | 77 | 94 | 0.0 | 0.0 | 0.00 | 0.00 | 0.00 | 77 | 1013.8 |
| 20260906024654 | 77 | 95 | 0.0 | 0.9 | 0.00 | 0.00 | 0.00 | 76 | 1013.9 |
| 20260906024153 | 77 | 25 | 0.0 | 0.0 | 0.00 | 0.00 | 0.00 | 74 | 1013.7 |
| 20260906023649 | 77 | 290 | 0.9 | 0.9 | 0.00 | 0.00 | 0.00 | 75 | 1013.6 |
| 20260906023149 | 77 | 2 | 0.0 | 1.7 | 0.00 | 0.00 | 0.00 | 76 | 1013.9 |
| 20260906022644 | 77 | 90 | 0.0 | 0.0 | 0.00 | 0.00 | 0.00 | 76 | 1013.9 |
| 20260906022140 | 77 | 90 | 0.0 | 0.9 | 0.00 | 0.00 | 0.00 | 77 | 1013.9 |
| 20260906021636 | 77 | 90 | 0.0 | 0.0 | 0.00 | 0.00 | 0.00 | 77 | 1013.6 |
| 20260906021135 | 77 | 90 | 0.0 | 0.0 | 0.00 | 0.00 | 0.00 | 76 | 1013.8 |
| 20260906020635 | 77 | 90 | 0.0 | 0.9 | 0.00 | 0.00 | 0.00 | 76 | 1013.5 |
| 20260906020130 | 78 | 85 | 0.0 | 0.0 | 0.00 | 0.00 | 0.00 | 75 | 1013.9 |
| 20260906015624 | 78 | 80 | 0.9 | 0.9 | 0.00 | 0.00 | 0.00 | 73 | 1013.8 |
| 20260906015122 | 79 | 175 | 1.7 | 1.7 | 0.00 | 0.00 | 0.00 | 71 | 1013.6 |
| 20260906014617 | 80 | 94 | 0.0 | 1.7 | 0.00 | 0.00 | 0.00 | 68 | 1014.0 |
| 20260906014114 | 80 | 75 | 0.0 | 2.6 | 0.00 | 0.00 | 0.00 | 67 | 1014.2 |
| 20260906013609 | 81 | 83 | 0.9 | 1.7 | 0.00 | 0.00 | 0.00 | 68 | 1014.2 |
| 20260906013104 | 81 | 25 | 0.0 | 2.6 | 0.00 | 0.00 | 0.00 | 70 | 1014.1 |
| 20260906012559 | 81 | 64 | 0.0 | 1.7 | 0.00 | 0.00 | 0.00 | 70 | 1014.1 |
| 20260906012058 | 81 | 5 | 2.6 | 2.6 | 0.00 | 0.00 | 0.00 | 71 | 1013.9 |
| 20260906011555 | 81 | 87 | 1.7 | 5.2 | 0.00 | 0.00 | 0.00 | 86 | 1013.8 |
| 20260906011049 | 81 | 101 | 0.0 | 0.0 | 0.00 | 0.00 | 0.00 | 86 | 1013.4 |
| 20260906010544 | 81 | 102 | 0.0 | 0.0 | 0.00 | 0.00 | 0.00 | 86 | 1012.9 |
| 20260906010041 | 82 | 152 | 0.9 | 1.7 | 0.00 | 0.00 | 0.00 | 85 | 1012.7 |
| 20260906005540 | 82 | 162 | 1.7 | 1.7 | 0.00 | 0.00 | 0.00 | 85 | 1012.8 |
| 20260906005039 | 82 | 95 | 0.0 | 0.9 | 0.00 | 0.00 | 0.00 | 84 | 1012.8 |
| 20260906004538 | 82 | 94 | 0.0 | 1.7 | 0.00 | 0.00 | 0.00 | 84 | 1012.4 |
| 20260906004033 | 82 | 97 | 0.9 | 1.7 | 0.00 | 0.00 | 0.00 | 84 | 1012.5 |
| 20260906003529 | 82 | 132 | 1.7 | 2.6 | 0.00 | 0.00 | 0.00 | 84 | 1012.2 |
| 20260906003025 | 83 | 182 | 2.6 | 4.3 | 0.00 | 0.00 | 0.00 | 84 | 1011.9 |
| 20260906002519 | 83 | 167 | 1.7 | 2.6 | 0.00 | 0.00 | 0.00 | 83 | 1012.0 |
| 20260906002014 | 83 | 86 | 0.0 | 0.9 | 0.00 | 0.00 | 0.00 | 83 | 1012.1 |
| 20260906001510 | 84 | 91 | 0.0 | 1.7 | 0.00 | 0.00 | 0.00 | 82 | 1012.1 |
| 20260906001004 | 84 | 176 | 1.7 | 2.6 | 0.00 | 0.00 | 0.00 | 80 | 1012.2 |
| 20260906000500 | 84 | 171 | 2.6 | 2.6 | 0.00 | 0.00 | 0.00 | 80 | 1012.5 |
| 20260905235959 | 85 | 147 | 0.9 | 1.7 | 0.00 | 0.00 | 0.00 | 79 | 1012.5 |
| 20260905235454 | 85 | 134 | 1.7 | 5.2 | 0.00 | 0.00 | 0.00 | 78 | 1012.6 |
| 20260905234949 | 85 | 184 | 1.7 | 1.7 | 0.00 | 0.00 | 0.00 | 79 | 1012.8 |
| 20260905234444 | 86 | 173 | 2.6 | 2.6 | 0.00 | 0.00 | 0.00 | 78 | 1012.6 |
| 20260905233938 | 86 | 176 | 2.6 | 4.3 | 0.00 | 0.00 | 0.00 | 77 | 1012.4 |
| 20260905233434 | 87 | 156 | 2.6 | 5.2 | 0.00 | 0.00 | 0.00 | 77 | 1012.3 |
| 20260905232933 | 87 | 123 | 0.9 | 2.6 | 0.00 | 0.00 | 0.00 | 76 | 1012.5 |
| 20260905232429 | 87 | 76 | 0.9 | 2.6 | 0.00 | 0.00 | 0.00 | 75 | 1012.3 |
| 20260905231924 | 87 | 163 | 2.6 | 2.6 | 0.00 | 0.00 | 0.00 | 75 | 1012.2 |
| 20260905231420 | 88 | 174 | 2.6 | 2.6 | 0.00 | 0.00 | 0.00 | 74 | 1012.4 |
| 20260905230917 | 88 | 199 | 1.7 | 4.3 | 0.00 | 0.00 | 0.00 | 74 | 1012.1 |
| 20260905230414 | 88 | 179 | 2.6 | 2.6 | 0.00 | 0.00 | 0.00 | 74 | 1012.1 |
| 20260905225907 | 88 | 181 | 3.5 | 4.3 | 0.00 | 0.00 | 0.00 | 73 | 1012.6 |
| 20260905225403 | 89 | 175 | 2.6 | 4.3 | 0.00 | 0.00 | 0.00 | 72 | 1012.5 |
| 20260905224858 | 89 | 180 | 1.7 | 5.2 | 0.00 | 0.00 | 0.00 | 71 | 1012.4 |
| 20260905224353 | 89 | 129 | 1.7 | 4.3 | 0.00 | 0.00 | 0.00 | 72 | 1012.2 |
| 20260905223848 | 89 | 168 | 2.6 | 2.6 | 0.00 | 0.00 | 0.00 | 71 | 1012.0 |
| 20260905223346 | 89 | 182 | 0.9 | 4.3 | 0.00 | 0.00 | 0.00 | 72 | 1012.2 |
| 20260905222840 | 89 | 145 | 0.9 | 4.3 | 0.00 | 0.00 | 0.00 | 71 | 1012.1 |
| 20260905222338 | 90 | 197 | 1.7 | 4.3 | 0.00 | 0.00 | 0.00 | 70 | 1012.1 |
| 20260905221835 | 90 | 92 | 0.0 | 2.6 | 0.00 | 0.00 | 0.00 | 70 | 1012.0 |
| 20260905221332 | 90 | 129 | 0.9 | 4.3 | 0.00 | 0.00 | 0.00 | 71 | 1012.0 |
| 20260905220827 | 90 | 154 | 1.7 | 2.6 | 0.00 | 0.00 | 0.00 | 71 | 1012.2 |
| 20260905220323 | 90 | 159 | 0.9 | 4.3 | 0.00 | 0.00 | 0.00 | 70 | 1012.2 |
| 20260905215822 | 90 | 196 | 0.9 | 2.6 | 0.00 | 0.00 | 0.00 | 70 | 1012.3 |
| 20260905215318 | 90 | 167 | 1.7 | 4.3 | 0.00 | 0.00 | 0.00 | 70 | 1012.1 |
| 20260905214815 | 90 | 194 | 1.7 | 6.1 | 0.00 | 0.00 | 0.00 | 70 | 1012.2 |
| 20260905214310 | 91 | 105 | 0.9 | 5.2 | 0.00 | 0.00 | 0.00 | 68 | 1012.4 |
| 20260905213804 | 91 | 198 | 1.7 | 2.6 | 0.00 | 0.00 | 0.00 | 69 | 1012.2 |
| 20260905213300 | 91 | 98 | 0.0 | 4.3 | 0.00 | 0.00 | 0.00 | 69 | 1012.3 |
| 20260905212755 | 90 | 178 | 2.6 | 4.3 | 0.00 | 0.00 | 0.00 | 70 | 1012.3 |
| 20260905212255 | 91 | 115 | 0.0 | 2.6 | 0.00 | 0.00 | 0.00 | 69 | 1012.5 |
| 20260905211749 | 91 | 108 | 0.9 | 4.3 | 0.00 | 0.00 | 0.00 | 68 | 1012.3 |
| 20260905211244 | 91 | 154 | 0.9 | 2.6 | 0.00 | 0.00 | 0.00 | 69 | 1012.7 |
| 20260905210742 | 91 | 173 | 1.7 | 6.1 | 0.00 | 0.00 | 0.00 | 69 | 1012.5 |
| 20260905210240 | 91 | 169 | 1.7 | 2.6 | 0.00 | 0.00 | 0.00 | 70 | 1012.6 |
| 20260905205739 | 90 | 33 | 2.6 | 4.3 | 0.00 | 0.00 | 0.00 | 69 | 1012.5 |
| 20260905205235 | 91 | 141 | 4.3 | 6.1 | 0.00 | 0.00 | 0.00 | 69 | 1012.6 |
| 20260905204734 | 91 | 179 | 2.6 | 7.0 | 0.00 | 0.00 | 0.00 | 70 | 1012.6 |
| 20260905204230 | 91 | 186 | 2.6 | 5.2 | 0.00 | 0.00 | 0.00 | 70 | 1012.6 |
| 20260905203729 | 91 | 156 | 3.5 | 7.8 | 0.00 | 0.00 | 0.00 | 70 | 1012.4 |
| 20260905203225 | 91 | 169 | 5.2 | 6.1 | 0.00 | 0.00 | 0.00 | 70 | 1012.5 |
| 20260905202720 | 92 | 86 | 2.6 | 6.1 | 0.00 | 0.00 | 0.00 | 67 | 1012.6 |
| 20260905202215 | 92 | 228 | 1.7 | 5.2 | 0.00 | 0.00 | 0.00 | 67 | 1012.5 |
| 20260905201710 | 92 | 172 | 4.3 | 5.2 | 0.00 | 0.00 | 0.00 | 68 | 1012.7 |
| 20260905201205 | 92 | 83 | 2.6 | 4.3 | 0.00 | 0.00 | 0.00 | 66 | 1012.6 |
| 20260905200700 | 91 | 149 | 4.3 | 6.1 | 0.00 | 0.00 | 0.00 | 67 | 1012.9 |
| 20260905200155 | 92 | 160 | 3.5 | 6.1 | 0.00 | 0.00 | 0.00 | 66 | 1012.8 |
| 20260905195654 | 92 | 176 | 2.6 | 6.1 | 0.00 | 0.00 | 0.00 | 69 | 1012.7 |
| 20260905195149 | 92 | 179 | 3.5 | 6.1 | 0.00 | 0.00 | 0.00 | 68 | 1012.9 |
| 20260905194644 | 92 | 94 | 3.5 | 6.1 | 0.00 | 0.00 | 0.00 | 68 | 1012.9 |
| 20260905194138 | 91 | 158 | 2.6 | 5.2 | 0.00 | 0.00 | 0.00 | 69 | 1013.0 |
| 20260905193632 | 90 | 192 | 4.3 | 7.0 | 0.00 | 0.00 | 0.00 | 69 | 1013.0 |
| 20260905193127 | 92 | 149 | 3.5 | 6.1 | 0.00 | 0.00 | 0.00 | 68 | 1012.9 |
| 20260905192623 | 92 | 174 | 5.2 | 6.1 | 0.00 | 0.00 | 0.00 | 67 | 1013.0 |
| 20260905192119 | 93 | 171 | 4.3 | 5.2 | 0.00 | 0.00 | 0.00 | 52 | 1013.1 |
| 20260905191618 | 93 | 106 | 0.9 | 1.7 | 0.00 | 0.00 | 0.00 | 53 | 1013.1 |
| 20260905191117 | 95 | 71 | 0.0 | 0.9 | 0.00 | 0.00 | 0.00 | 49 | 1013.2 |
| 20260905190615 | 96 | 40 | 1.7 | 2.6 | 0.00 | 0.00 | 0.00 | 49 | 1013.1 |
| 20260905190114 | 96 | 40 | 0.9 | 1.7 | 0.00 | 0.00 | 0.00 | 49 | 1013.2 |
| 20260905185614 | 96 | 302 | 2.6 | 4.3 | 0.00 | 0.00 | 0.00 | 49 | 1013.3 |
| 20260905185108 | 97 | 283 | 2.6 | 4.3 | 0.00 | 0.00 | 0.00 | 47 | 1013.4 |
| 20260905184603 | 96 | 358 | 0.9 | 1.7 | 0.00 | 0.00 | 0.00 | 50 | 1013.5 |
| 20260905184102 | 97 | 334 | 0.9 | 2.6 | 0.00 | 0.00 | 0.00 | 50 | 1013.6 |
| 20260905183601 | 97 | 37 | 0.9 | 4.3 | 0.00 | 0.00 | 0.00 | 49 | 1013.7 |
| 20260905183057 | 95 | 75 | 0.0 | 0.9 | 0.00 | 0.00 | 0.00 | 50 | 1013.6 |
| 20260905182556 | 94 | 108 | 0.9 | 1.7 | 0.00 | 0.00 | 0.00 | 52 | 1013.8 |
| 20260905182050 | 94 | 93 | 0.9 | 4.3 | 0.00 | 0.00 | 0.00 | 53 | 1014.1 |
| 20260905181545 | 95 | 50 | 0.0 | 1.7 | 0.00 | 0.00 | 0.00 | 52 | 1014.1 |
| 20260905181045 | 95 | 199 | 1.7 | 4.3 | 0.00 | 0.00 | 0.00 | 53 | 1014.1 |
| 20260905180545 | 94 | 334 | 2.6 | 2.6 | 0.00 | 0.00 | 0.00 | 53 | 1014.3 |
| 20260905180041 | 95 | 38 | 0.0 | 0.9 | 0.00 | 0.00 | 0.00 | 52 | 1014.3 |
| 20260905175539 | 94 | 179 | 0.9 | 1.7 | 0.00 | 0.00 | 0.00 | 52 | 1014.2 |
| 20260905175035 | 96 | 37 | 0.0 | 1.7 | 0.00 | 0.00 | 0.00 | 51 | 1014.3 |
| 20260905174531 | 96 | 49 | 0.0 | 1.7 | 0.00 | 0.00 | 0.00 | 50 | 1014.3 |
| 20260905174026 | 94 | 44 | 0.9 | 2.6 | 0.00 | 0.00 | 0.00 | 53 | 1014.5 |
| 20260905173523 | 94 | 84 | 0.9 | 2.6 | 0.00 | 0.00 | 0.00 | 54 | 1014.7 |
| 20260905173018 | 95 | 36 | 1.7 | 2.6 | 0.00 | 0.00 | 0.00 | 51 | 1014.5 |
| 20260905172516 | 95 | 55 | 0.0 | 2.6 | 0.00 | 0.00 | 0.00 | 52 | 1014.7 |
| 20260905172012 | 95 | 77 | 0.9 | 1.7 | 0.00 | 0.00 | 0.00 | 52 | 1014.5 |
| 20260905171508 | 95 | 57 | 0.0 | 1.7 | 0.00 | 0.00 | 0.00 | 52 | 1014.9 |
| 20260905171003 | 94 | 41 | 0.0 | 2.6 | 0.00 | 0.00 | 0.00 | 55 | 1015.0 |
| 20260905170500 | 93 | 29 | 0.9 | 1.7 | 0.00 | 0.00 | 0.00 | 55 | 1015.1 |
| 20260905165954 | 94 | 28 | 0.0 | 1.7 | 0.00 | 0.00 | 0.00 | 54 | 1015.2 |
| 20260905165449 | 94 | 7 | 1.7 | 1.7 | 0.00 | 0.00 | 0.00 | 53 | 1015.0 |
| 20260905164944 | 93 | 12 | 2.6 | 5.2 | 0.00 | 0.00 | 0.00 | 55 | 1015.4 |
| 20260905164438 | 92 | 45 | 0.0 | 0.9 | 0.00 | 0.00 | 0.00 | 57 | 1015.3 |
| 20260905163933 | 93 | 34 | 0.9 | 1.7 | 0.00 | 0.00 | 0.00 | 55 | 1015.5 |
| 20260905163430 | 91 | 67 | 0.9 | 0.9 | 0.00 | 0.00 | 0.00 | 58 | 1015.4 |
| 20260905162925 | 93 | 68 | 0.0 | 0.9 | 0.00 | 0.00 | 0.00 | 56 | 1015.4 |
| 20260905162420 | 92 | 47 | 0.0 | 2.6 | 0.00 | 0.00 | 0.00 | 56 | 1015.7 |
| 20260905161915 | 93 | 353 | 1.7 | 4.3 | 0.00 | 0.00 | 0.00 | 56 | 1015.6 |
| 20260905161414 | 93 | 86 | 1.7 | 2.6 | 0.00 | 0.00 | 0.00 | 55 | 1015.4 |
| 20260905160912 | 94 | 15 | 2.6 | 2.6 | 0.00 | 0.00 | 0.00 | 55 | 1015.5 |
| 20260905160406 | 95 | 347 | 1.7 | 1.7 | 0.00 | 0.00 | 0.00 | 54 | 1015.6 |
| 20260905155900 | 94 | 53 | 0.0 | 1.7 | 0.00 | 0.00 | 0.00 | 55 | 1015.5 |
| 20260905155355 | 94 | 54 | 0.0 | 0.9 | 0.00 | 0.00 | 0.00 | 55 | 1015.4 |
| 20260905154854 | 94 | 20 | 0.9 | 0.9 | 0.00 | 0.00 | 0.00 | 55 | 1015.3 |
| 20260905154350 | 93 | 32 | 0.0 | 1.7 | 0.00 | 0.00 | 0.00 | 57 | 1015.2 |
| 20260905153845 | 93 | 0 | 2.6 | 2.6 | 0.00 | 0.00 | 0.00 | 57 | 1015.1 |
| 20260905153342 | 92 | 40 | 0.0 | 0.9 | 0.00 | 0.00 | 0.00 | 61 | 1015.1 |
| 20260905152841 | 90 | 47 | 0.9 | 4.3 | 0.00 | 0.00 | 0.00 | 63 | 1015.1 |
| 20260905152340 | 91 | 14 | 4.3 | 6.1 | 0.00 | 0.00 | 0.00 | 63 | 1015.2 |
| 20260905151835 | 90 | 26 | 0.9 | 4.3 | 0.00 | 0.00 | 0.00 | 64 | 1015.4 |
| 20260905151331 | 90 | 2 | 2.6 | 5.2 | 0.00 | 0.00 | 0.00 | 65 | 1015.1 |
| 20260905150830 | 90 | 342 | 2.6 | 5.2 | 0.00 | 0.00 | 0.00 | 65 | 1015.3 |
| 20260905150326 | 89 | 45 | 0.0 | 4.3 | 0.00 | 0.00 | 0.00 | 68 | 1015.4 |
| 20260905145823 | 90 | 23 | 1.7 | 4.3 | 0.00 | 0.00 | 0.00 | 65 | 1015.4 |
| 20260905145322 | 89 | 40 | 1.7 | 4.3 | 0.00 | 0.00 | 0.00 | 67 | 1015.5 |
| 20260905144821 | 89 | 20 | 0.0 | 2.6 | 0.00 | 0.00 | 0.00 | 68 | 1015.6 |
| 20260905144317 | 88 | 14 | 0.9 | 2.6 | 0.00 | 0.00 | 0.00 | 69 | 1015.5 |
| 20260905143816 | 88 | 25 | 1.7 | 2.6 | 0.00 | 0.00 | 0.00 | 70 | 1015.4 |
| 20260905143311 | 87 | 30 | 0.9 | 1.7 | 0.00 | 0.00 | 0.00 | 70 | 1015.4 |
| 20260905142809 | 87 | 5 | 0.9 | 2.6 | 0.00 | 0.00 | 0.00 | 71 | 1015.4 |
| 20260905142306 | 87 | 48 | 0.9 | 1.7 | 0.00 | 0.00 | 0.00 | 72 | 1015.6 |
| 20260905141800 | 87 | 25 | 0.0 | 1.7 | 0.00 | 0.00 | 0.00 | 73 | 1015.7 |
| 20260905141255 | 86 | 23 | 1.7 | 4.3 | 0.00 | 0.00 | 0.00 | 72 | 1015.6 |
| 20260905140751 | 86 | 333 | 2.6 | 2.6 | 0.00 | 0.00 | 0.00 | 73 | 1015.9 |
| 20260905140250 | 85 | 1 | 0.9 | 5.2 | 0.00 | 0.00 | 0.00 | 75 | 1015.8 |
| 20260905135749 | 85 | 19 | 0.9 | 1.7 | 0.00 | 0.00 | 0.00 | 75 | 1015.9 |
| 20260905135245 | 84 | 358 | 1.7 | 4.3 | 0.00 | 0.00 | 0.00 | 75 | 1015.8 |
| 20260905134744 | 84 | 20 | 1.7 | 1.7 | 0.00 | 0.00 | 0.00 | 76 | 1015.7 |
| 20260905134239 | 84 | 12 | 0.9 | 4.3 | 0.00 | 0.00 | 0.00 | 77 | 1015.6 |
| 20260905133734 | 83 | 25 | 1.7 | 2.6 | 0.00 | 0.00 | 0.00 | 78 | 1015.7 |
| 20260905133229 | 83 | 10 | 0.9 | 2.6 | 0.00 | 0.00 | 0.00 | 79 | 1015.7 |
| 20260905132728 | 83 | 0 | 0.9 | 1.7 | 0.00 | 0.00 | 0.00 | 81 | 1015.7 |